Barcelona Aeropuerto

latitud = 41° 17' 34''N | longitud = 002° 04' 12''E
4 metros sobre el nivel del mar | datos mensuales

Fecha, hora, temperatura, viento dirección y velocidad, humedad y presión.

  • 21-06-2018 22:00:00 | 24.70°C | Sudoeste |14.00 km/h | 73.00% | 1015.90 hPa
  • 21-06-2018 21:00:00 | 25.90°C | Sudoeste |16.00 km/h | 61.00% | 1015.80 hPa
  • 21-06-2018 20:00:00 | 26.80°C | Sudoeste |18.00 km/h | 58.00% | 1015.40 hPa
  • 21-06-2018 19:00:00 | 27.30°C | Sudoeste |17.00 km/h | 54.00% | 1015.50 hPa
  • 21-06-2018 18:00:00 | 27.90°C | Sudoeste |21.00 km/h | 50.00% | 1016.00 hPa
  • 21-06-2018 17:00:00 | 28.10°C | Sudoeste |20.00 km/h | 49.00% | 1016.40 hPa
  • 21-06-2018 16:00:00 | 28.10°C | Sudoeste |20.00 km/h | 48.00% | 1016.80 hPa
  • 21-06-2018 15:00:00 | 28.50°C | Sudoeste |18.00 km/h | 47.00% | 1017.00 hPa
  • 21-06-2018 14:00:00 | 27.90°C | Sudoeste |15.00 km/h | 52.00% | 1017.40 hPa
  • 21-06-2018 13:00:00 | 27.50°C | Sudoeste |14.00 km/h | 49.00% | 1017.70 hPa
  • 21-06-2018 12:00:00 | 26.70°C | Sur |14.00 km/h | 55.00% | 1017.60 hPa
  • 21-06-2018 11:00:00 | 27.70°C | Sudoeste |11.00 km/h | 52.00% | 1017.10 hPa
  • 21-06-2018 10:00:00 | 27.30°C | Norte |5.00 km/h | 45.00% | 1017.40 hPa
  • 21-06-2018 09:00:00 | 25.20°C | Norte |7.00 km/h | 52.00% | 1017.50 hPa
  • 21-06-2018 08:00:00 | 22.30°C | Norte |15.00 km/h | 59.00% | 1017.30 hPa
  • 21-06-2018 07:00:00 | 21.10°C | Norte |11.00 km/h | 64.00% | 1017.10 hPa
  • 21-06-2018 06:00:00 | 21.00°C | Norte |11.00 km/h | 63.00% | 1017.00 hPa
  • 21-06-2018 05:00:00 | 21.30°C | Norte |13.00 km/h | 64.00% | 1017.20 hPa
  • 21-06-2018 04:00:00 | 21.00°C | Norte |10.00 km/h | 67.00% | 1017.50 hPa
  • 21-06-2018 03:00:00 | 20.90°C | Norte |4.00 km/h | 66.00% | 1017.90 hPa
  • 21-06-2018 02:00:00 | 21.80°C | Norte |3.00 km/h | 68.00% | 1018.00 hPa
  • 21-06-2018 01:00:00 | 22.70°C | Norte |2.00 km/h | 70.00% | 1018.30 hPa
  • 21-06-2018 00:00:00 | 22.50°C | Oeste |7.00 km/h | 77.00% | 1018.50 hPa
  • 20-06-2018 23:00:00 | 23.90°C | Oeste |5.00 km/h | 71.00% | 1018.50 hPa